createdAt,value
2017-06-10T00:00:18.195Z,14.60
2017-06-10T00:01:14.855Z,14.59
2017-06-10T00:02:11.171Z,14.58
2017-06-10T00:03:08.003Z,14.57
2017-06-10T00:04:04.287Z,14.55
2017-06-10T00:05:00.800Z,14.55
2017-06-10T00:05:57.095Z,14.53
2017-06-10T00:06:53.364Z,14.53
2017-06-10T00:07:49.899Z,14.50
2017-06-10T00:08:46.278Z,14.49
2017-06-10T00:09:42.631Z,14.47
2017-06-10T00:10:38.900Z,14.45
2017-06-10T00:11:35.220Z,14.45
2017-06-10T00:12:32.517Z,14.43
2017-06-10T00:13:30.841Z,14.42
2017-06-10T00:14:28.072Z,14.43
2017-06-10T00:15:24.511Z,14.40
2017-06-10T00:16:22.648Z,14.39
2017-06-10T00:17:21.767Z,14.37
2017-06-10T00:18:18.344Z,14.37
2017-06-10T00:19:15.480Z,14.35
2017-06-10T00:20:12.397Z,14.34
2017-06-10T00:21:08.751Z,14.33
2017-06-10T00:22:06.337Z,14.32
2017-06-10T00:23:03.508Z,14.32
2017-06-10T00:23:59.919Z,14.31
2017-06-10T00:24:56.583Z,14.28
2017-06-10T00:25:53.336Z,14.27
2017-06-10T00:26:50.136Z,14.26
2017-06-10T00:27:46.996Z,14.25
2017-06-10T00:28:43.590Z,14.24
2017-06-10T00:29:43.928Z,14.24
2017-06-10T00:30:43.040Z,14.23
2017-06-10T00:31:40.707Z,14.21
2017-06-10T00:32:39.332Z,14.19
2017-06-10T00:33:36.121Z,14.18
2017-06-10T00:34:33.119Z,14.16
2017-06-10T00:35:30.044Z,14.16
2017-06-10T00:36:28.308Z,14.13
2017-06-10T00:37:26.073Z,14.12
2017-06-10T00:38:24.073Z,14.11
2017-06-10T00:39:25.846Z,14.09
2017-06-10T00:40:24.506Z,14.08
2017-06-10T00:41:22.678Z,14.06
2017-06-10T00:42:20.343Z,14.05
2017-06-10T00:43:17.372Z,14.04
2017-06-10T00:44:16.245Z,14.03
2017-06-10T00:45:14.345Z,14.02
2017-06-10T00:46:14.040Z,14.00
2017-06-10T00:47:15.609Z,13.99
2017-06-10T00:48:16.805Z,13.99
2017-06-10T00:49:14.948Z,13.97
2017-06-10T00:50:19.102Z,13.96
2017-06-10T00:51:17.829Z,13.94
2017-06-10T00:52:21.367Z,13.93
2017-06-10T00:53:20.031Z,13.92
2017-06-10T00:55:25.908Z,13.90
2017-06-10T00:56:26.290Z,13.90
2017-06-10T00:57:30.913Z,13.89
2017-06-10T00:58:30.974Z,13.87
2017-06-10T00:59:34.019Z,13.87
2017-06-10T01:00:33.625Z,13.87
2017-06-10T01:01:31.296Z,13.84
2017-06-10T01:07:13.493Z,13.83
2017-06-10T01:08:15.140Z,13.68
2017-06-10T01:09:16.621Z,13.67
2017-06-10T01:11:26.209Z,13.67
2017-06-10T01:15:57.893Z,13.63
2017-06-10T01:16:58.677Z,13.62
2017-06-10T01:18:00.904Z,13.62
2017-06-10T01:19:02.638Z,13.61
2017-06-10T01:20:02.891Z,13.59
2017-06-10T01:23:50.840Z,13.57
2017-06-10T01:26:05.361Z,13.54
2017-06-10T01:27:08.065Z,13.53
2017-06-10T01:28:11.493Z,13.52
2017-06-10T01:29:15.474Z,13.51
2017-06-10T01:33:12.138Z,13.48
2017-06-10T01:36:04.793Z,13.45
2017-06-10T01:37:09.658Z,13.43
2017-06-10T01:42:43.096Z,13.36
2017-06-10T01:51:06.821Z,13.31
2017-06-10T05:31:04.868Z,13.25
2017-06-10T05:34:32.961Z,13.33
2017-06-10T05:35:36.500Z,13.38
2017-06-10T05:36:37.965Z,13.40
2017-06-10T05:37:38.596Z,13.43
2017-06-10T05:38:43.445Z,13.46
2017-06-10T05:40:55.153Z,13.51
2017-06-10T05:43:02.648Z,13.57
2017-06-10T05:44:12.921Z,13.62
2017-06-10T05:45:27.044Z,13.64
2017-06-10T05:47:40.561Z,13.72
2017-06-10T06:03:59.681Z,14.22
2017-06-10T06:05:04.621Z,14.26
2017-06-10T06:06:11.333Z,14.30
2017-06-10T06:07:14.209Z,14.33
2017-06-10T06:08:11.956Z,14.37
2017-06-10T06:09:10.164Z,14.41
2017-06-10T06:10:06.764Z,14.46
2017-06-10T06:11:03.537Z,14.49
2017-06-10T06:12:00.159Z,14.55
2017-06-10T06:12:56.668Z,14.58
2017-06-10T06:13:53.824Z,14.62
2017-06-10T06:14:50.202Z,14.65
2017-06-10T06:15:47.472Z,14.69
2017-06-10T06:16:43.728Z,14.72
2017-06-10T06:17:42.847Z,14.76
2017-06-10T06:18:39.136Z,14.78
2017-06-10T06:19:38.704Z,14.81
2017-06-10T06:20:34.975Z,14.84
2017-06-10T06:21:31.227Z,14.89
2017-06-10T06:22:27.503Z,14.92
2017-06-10T06:23:23.779Z,14.95
2017-06-10T06:24:20.047Z,14.98
2017-06-10T06:25:16.345Z,14.99
2017-06-10T06:26:12.603Z,15.02
2017-06-10T06:27:08.867Z,15.04
2017-06-10T06:28:05.135Z,15.07
2017-06-10T06:29:01.423Z,15.09
2017-06-10T06:29:57.674Z,15.12
2017-06-10T06:30:53.932Z,15.13
2017-06-10T06:31:50.195Z,15.14
2017-06-10T06:32:46.461Z,15.17
2017-06-10T06:33:42.791Z,15.18
2017-06-10T06:34:39.315Z,15.20
2017-06-10T06:35:35.664Z,15.23
2017-06-10T06:36:32.011Z,15.26
2017-06-10T06:37:28.255Z,15.28
2017-06-10T06:38:24.494Z,15.32
2017-06-10T06:39:20.738Z,15.35
2017-06-10T06:40:17.005Z,15.38
2017-06-10T06:41:13.251Z,15.42
2017-06-10T06:42:09.494Z,15.45
2017-06-10T06:43:05.732Z,15.49
2017-06-10T06:44:01.987Z,15.52
2017-06-10T06:44:58.244Z,15.56
2017-06-10T06:45:54.527Z,15.60
2017-06-10T06:46:50.769Z,15.63
2017-06-10T06:47:47.072Z,15.64
2017-06-10T06:48:43.606Z,15.65
2017-06-10T06:49:39.854Z,15.67
2017-06-10T06:50:36.099Z,15.70
2017-06-10T06:51:32.363Z,15.70
2017-06-10T06:52:28.617Z,15.71
2017-06-10T06:53:24.864Z,15.72
2017-06-10T06:54:21.098Z,15.73
2017-06-10T06:55:17.338Z,15.75
2017-06-10T06:56:13.614Z,15.76
2017-06-10T06:57:09.875Z,15.78
2017-06-10T06:58:06.131Z,15.79
2017-06-10T06:59:02.379Z,15.80
2017-06-10T06:59:58.635Z,15.81
2017-06-10T07:00:54.886Z,15.81
2017-06-10T07:01:51.167Z,15.80
2017-06-10T07:02:47.411Z,15.82
2017-06-10T07:03:43.659Z,15.80
2017-06-10T07:04:39.907Z,15.80
2017-06-10T07:05:36.159Z,15.80
2017-06-10T07:06:32.408Z,15.80
2017-06-10T07:07:28.683Z,15.81
2017-06-10T07:08:25.019Z,15.81
2017-06-10T07:09:21.266Z,15.78
2017-06-10T07:10:17.510Z,15.79
2017-06-10T07:11:13.755Z,15.79
2017-06-10T07:12:10.011Z,15.79
2017-06-10T07:13:06.267Z,15.79
2017-06-10T07:14:02.507Z,15.79
2017-06-10T07:14:58.790Z,15.78
2017-06-10T07:15:55.055Z,15.77
2017-06-10T07:16:51.311Z,15.77
2017-06-10T07:17:47.566Z,15.77
2017-06-10T07:18:43.823Z,15.77
2017-06-10T07:19:40.066Z,15.77
2017-06-10T07:20:36.343Z,15.76
2017-06-10T07:21:32.611Z,15.78
2017-06-10T07:22:28.855Z,15.78
2017-06-10T07:23:25.142Z,15.78
2017-06-10T07:24:21.443Z,15.76
2017-06-10T07:25:17.683Z,15.75
2017-06-10T07:26:13.930Z,15.77
2017-06-10T07:27:10.171Z,15.78
2017-06-10T07:28:06.427Z,15.78
2017-06-10T07:29:02.706Z,15.79
2017-06-10T07:29:58.956Z,15.80
2017-06-10T07:30:55.210Z,15.80
2017-06-10T07:31:51.446Z,15.80
2017-06-10T07:32:47.678Z,15.82
2017-06-10T07:33:43.934Z,15.81
2017-06-10T07:34:40.199Z,15.82
2017-06-10T07:35:36.443Z,15.84
2017-06-10T07:36:32.695Z,15.84
2017-06-10T07:37:28.935Z,15.84
2017-06-10T07:38:25.195Z,15.85
2017-06-10T07:39:21.439Z,15.86
2017-06-10T07:40:17.714Z,15.88
2017-06-10T07:41:13.958Z,15.89
2017-06-10T07:42:10.204Z,15.90
2017-06-10T07:43:06.443Z,15.93
2017-06-10T07:44:02.687Z,15.94
2017-06-10T07:44:58.930Z,15.94
2017-06-10T07:45:55.191Z,15.97
2017-06-10T07:46:51.431Z,15.99
2017-06-10T07:47:47.679Z,16.00
2017-06-10T07:48:43.992Z,16.02
2017-06-10T07:49:40.242Z,16.03
2017-06-10T07:50:36.534Z,16.05
2017-06-10T07:51:32.779Z,16.08
2017-06-10T07:52:29.031Z,16.09
2017-06-10T07:53:25.347Z,16.11
2017-06-10T07:54:21.583Z,16.13
2017-06-10T07:55:17.822Z,16.13
2017-06-10T07:56:14.091Z,16.16
2017-06-10T07:57:10.338Z,16.18
2017-06-10T07:58:06.583Z,16.20
2017-06-10T07:59:02.819Z,16.23
2017-06-10T07:59:59.063Z,16.25
2017-06-10T08:00:55.455Z,16.27
2017-06-10T08:01:51.860Z,16.29
2017-06-10T08:02:48.123Z,16.30
2017-06-10T08:03:44.372Z,16.31
2017-06-10T08:04:40.660Z,16.32
2017-06-10T08:05:36.935Z,16.35
2017-06-10T08:06:33.195Z,16.37
2017-06-10T08:07:29.474Z,16.39
2017-06-10T08:08:25.714Z,16.40
2017-06-10T08:09:21.977Z,16.42
2017-06-10T08:10:18.250Z,16.45
2017-06-10T08:11:14.495Z,16.46
2017-06-10T08:12:10.743Z,16.58
2017-06-10T08:13:07.004Z,16.87
2017-06-10T08:14:03.263Z,17.16
2017-06-10T08:14:59.500Z,17.40
2017-06-10T08:15:55.750Z,17.60
2017-06-10T08:16:52.011Z,17.77
2017-06-10T08:17:48.295Z,17.89
2017-06-10T08:18:44.542Z,18.01
2017-06-10T08:19:40.816Z,18.12
2017-06-10T08:20:37.083Z,18.21
2017-06-10T08:21:33.338Z,18.27
2017-06-10T08:22:29.583Z,18.36
2017-06-10T08:23:25.837Z,18.42
2017-06-10T08:24:22.135Z,18.49
2017-06-10T08:25:18.376Z,18.55
2017-06-10T08:26:14.631Z,18.60
2017-06-10T08:27:10.886Z,18.67
2017-06-10T08:28:07.211Z,18.72
2017-06-10T08:29:03.479Z,18.77
2017-06-10T08:29:59.727Z,18.82
2017-06-10T08:30:55.970Z,18.87
2017-06-10T08:31:52.212Z,18.92
2017-06-10T08:32:48.466Z,18.98
2017-06-10T08:33:44.719Z,19.03
2017-06-10T08:34:40.995Z,19.07
2017-06-10T08:35:37.232Z,19.12
2017-06-10T08:36:33.495Z,19.18
2017-06-10T08:37:29.750Z,19.22
2017-06-10T08:38:26.000Z,19.28
2017-06-10T08:39:22.238Z,19.32
2017-06-10T08:40:18.492Z,19.36
2017-06-10T08:41:14.745Z,19.40
2017-06-10T08:42:10.986Z,19.44
2017-06-10T08:43:07.227Z,19.48
2017-06-10T08:44:03.475Z,19.51
2017-06-10T08:44:59.734Z,19.55
2017-06-10T08:45:56.011Z,19.60
2017-06-10T08:46:52.263Z,19.63
2017-06-10T08:47:48.516Z,19.67
2017-06-10T08:48:44.766Z,19.70
2017-06-10T08:49:41.007Z,19.75
2017-06-10T08:50:37.255Z,19.78
2017-06-10T08:51:33.530Z,19.82
2017-06-10T08:52:29.767Z,19.87
2017-06-10T08:53:26.007Z,19.91
2017-06-10T08:54:22.255Z,19.95
2017-06-10T08:55:18.494Z,19.98
2017-06-10T08:56:14.739Z,20.03
2017-06-10T08:57:11.003Z,20.06
2017-06-10T08:58:07.268Z,20.10
2017-06-10T08:59:03.530Z,20.14
2017-06-10T08:59:59.787Z,20.19
2017-06-10T09:00:56.059Z,20.23
2017-06-10T09:01:52.299Z,20.31
2017-06-10T09:02:48.568Z,20.38
2017-06-10T09:03:44.819Z,20.45
2017-06-10T09:04:41.058Z,20.55
2017-06-10T09:05:37.303Z,20.67
2017-06-10T09:06:33.547Z,20.77
2017-06-10T09:07:29.807Z,20.86
2017-06-10T09:08:26.063Z,20.99
2017-06-10T09:09:22.307Z,21.04
2017-06-10T09:10:18.559Z,21.16
2017-06-10T09:11:14.795Z,21.27
2017-06-10T09:12:11.030Z,21.39
2017-06-10T09:13:07.310Z,21.52
2017-06-10T09:14:03.556Z,21.64
2017-06-10T09:14:59.810Z,21.74
2017-06-10T09:15:56.050Z,21.84
2017-06-10T09:16:52.303Z,21.94
2017-06-10T09:17:48.567Z,22.05
2017-06-10T09:18:44.834Z,22.16
2017-06-10T09:19:41.083Z,22.28
2017-06-10T09:20:37.322Z,22.39
2017-06-10T09:21:33.568Z,22.53
2017-06-10T09:22:29.811Z,22.65
2017-06-10T09:23:26.059Z,22.79
2017-06-10T09:24:22.335Z,22.93
2017-06-10T09:25:18.575Z,23.08
2017-06-10T09:26:14.834Z,23.24
2017-06-10T09:27:11.071Z,23.39
2017-06-10T09:28:07.315Z,23.55
2017-06-10T09:29:03.580Z,23.69
2017-06-10T09:29:59.870Z,23.85
2017-06-10T09:30:56.104Z,23.99
2017-06-10T09:31:52.343Z,24.14
2017-06-10T09:32:48.587Z,24.29
2017-06-10T09:33:44.826Z,24.41
2017-06-10T09:34:41.108Z,24.56
2017-06-10T09:35:37.347Z,24.66
2017-06-10T09:36:33.587Z,24.76
2017-06-10T09:37:29.822Z,24.88
2017-06-10T09:38:26.079Z,24.98
2017-06-10T09:39:22.331Z,25.08
2017-06-10T09:40:18.587Z,25.17
2017-06-10T09:41:14.830Z,25.28
2017-06-10T09:42:11.071Z,25.39
2017-06-10T09:43:07.315Z,25.51
2017-06-10T09:44:03.577Z,25.61
2017-06-10T09:45:00.717Z,25.72
2017-06-10T09:45:57.119Z,25.82
2017-06-10T09:46:53.364Z,25.89
2017-06-10T09:47:49.606Z,26.00
2017-06-10T09:48:45.851Z,26.03
2017-06-10T09:49:42.278Z,26.09
2017-06-10T09:50:38.515Z,26.15
2017-06-10T09:51:35.735Z,26.17
2017-06-10T09:52:32.001Z,26.21
2017-06-10T09:53:28.280Z,26.27
2017-06-10T09:54:24.535Z,26.33
2017-06-10T09:55:20.826Z,26.38
2017-06-10T09:56:17.075Z,26.45
2017-06-10T09:57:13.343Z,26.53
2017-06-10T09:58:09.591Z,26.59
2017-06-10T09:59:05.835Z,26.67
2017-06-10T10:00:02.089Z,26.73
2017-06-10T10:00:58.367Z,26.77
2017-06-10T10:01:54.630Z,26.82
2017-06-10T10:02:50.886Z,26.82
2017-06-10T10:03:47.127Z,26.80
2017-06-10T10:04:43.381Z,26.75
2017-06-10T10:05:39.631Z,26.66
2017-06-10T10:06:35.883Z,26.59
2017-06-10T10:07:32.171Z,26.52
2017-06-10T10:08:28.431Z,26.49
2017-06-10T10:09:24.702Z,26.47
2017-06-10T10:10:20.964Z,26.48
2017-06-10T10:11:17.222Z,26.44
2017-06-10T10:12:13.493Z,26.42
2017-06-10T10:13:09.833Z,26.36
2017-06-10T10:14:06.107Z,26.33
2017-06-10T10:15:02.371Z,26.30
2017-06-10T10:15:58.647Z,26.32
2017-06-10T10:16:54.914Z,26.30
2017-06-10T10:17:51.202Z,26.28
2017-06-10T10:18:47.885Z,26.25
2017-06-10T10:19:44.157Z,26.21
2017-06-10T10:20:40.414Z,26.17
2017-06-10T10:21:36.663Z,26.12
2017-06-10T10:22:32.921Z,26.06
2017-06-10T10:23:29.175Z,26.04
2017-06-10T10:24:25.443Z,25.98
2017-06-10T10:25:21.695Z,25.95
2017-06-10T10:26:17.943Z,25.91
2017-06-10T10:27:14.191Z,25.88
2017-06-10T10:28:11.815Z,25.84
2017-06-10T10:29:08.135Z,25.82
2017-06-10T10:30:04.398Z,25.79
2017-06-10T10:31:00.775Z,25.76
2017-06-10T10:31:57.014Z,25.73
2017-06-10T10:32:53.259Z,25.67
2017-06-10T10:33:49.519Z,25.59
2017-06-10T10:34:45.805Z,25.53
2017-06-10T10:35:42.048Z,25.48
2017-06-10T10:36:38.310Z,25.43
2017-06-10T10:37:34.587Z,25.41
2017-06-10T10:38:30.839Z,25.41
2017-06-10T10:39:27.131Z,25.42
2017-06-10T10:40:23.421Z,25.43
2017-06-10T10:41:19.670Z,25.46
2017-06-10T10:42:15.919Z,25.50
2017-06-10T10:43:12.168Z,25.53
2017-06-10T10:44:08.420Z,25.57
2017-06-10T10:45:04.683Z,25.62
2017-06-10T10:46:00.963Z,25.69
2017-06-10T10:46:57.218Z,25.72
2017-06-10T10:47:53.467Z,25.74
2017-06-10T10:48:49.727Z,25.73
2017-06-10T10:49:45.974Z,25.71
2017-06-10T10:50:42.247Z,25.68
2017-06-10T10:51:38.529Z,25.66
2017-06-10T10:52:34.790Z,25.63
2017-06-10T10:53:31.038Z,25.63
2017-06-10T10:54:27.299Z,25.63
2017-06-10T10:55:23.551Z,25.59
2017-06-10T10:56:19.844Z,25.56
2017-06-10T10:57:16.099Z,25.53
2017-06-10T10:58:12.355Z,25.49
2017-06-10T10:59:08.618Z,25.46
2017-06-10T11:00:04.895Z,25.46
2017-06-10T11:01:01.160Z,25.43
2017-06-10T11:01:57.431Z,25.42
2017-06-10T11:02:53.683Z,25.39
2017-06-10T11:03:49.927Z,25.36
2017-06-10T11:04:46.166Z,25.34
2017-06-10T11:05:42.407Z,25.31
2017-06-10T11:06:38.662Z,25.31
2017-06-10T11:07:34.985Z,25.30
2017-06-10T11:08:31.263Z,25.29
2017-06-10T11:09:27.539Z,25.29
2017-06-10T11:10:23.783Z,25.27
2017-06-10T11:11:20.022Z,25.24
2017-06-10T11:12:16.284Z,25.22
2017-06-10T11:13:12.587Z,25.20
2017-06-10T11:14:08.849Z,25.18
2017-06-10T11:15:05.126Z,25.15
2017-06-10T11:16:01.438Z,25.15
2017-06-10T11:16:57.739Z,25.13
2017-06-10T11:17:54.015Z,25.09
2017-06-10T11:18:50.320Z,25.07
2017-06-10T11:19:46.595Z,25.06
2017-06-10T11:20:42.862Z,25.07
2017-06-10T11:21:39.104Z,25.09
2017-06-10T11:22:35.351Z,25.12
2017-06-10T11:23:31.651Z,25.17
2017-06-10T11:24:27.895Z,25.23
2017-06-10T11:25:24.131Z,25.31
2017-06-10T11:26:20.382Z,25.40
2017-06-10T11:27:16.623Z,25.48
2017-06-10T11:28:12.866Z,25.57
2017-06-10T11:29:09.142Z,25.67
2017-06-10T11:30:05.375Z,25.74
2017-06-10T11:31:01.642Z,25.83
2017-06-10T11:31:57.943Z,25.88
2017-06-10T11:32:54.183Z,25.94
2017-06-10T11:33:50.426Z,26.00
2017-06-10T11:34:46.694Z,26.04
2017-06-10T11:35:42.946Z,26.08
2017-06-10T11:36:39.183Z,26.17
2017-06-10T11:37:35.423Z,26.23
2017-06-10T11:38:31.718Z,26.30
2017-06-10T11:39:27.969Z,26.36
2017-06-10T11:40:24.244Z,26.39
2017-06-10T11:41:20.484Z,26.44
2017-06-10T11:42:16.739Z,26.50
2017-06-10T11:43:13.043Z,26.58
2017-06-10T11:44:09.328Z,26.64
2017-06-10T11:45:05.607Z,26.73
2017-06-10T11:46:01.860Z,26.80
2017-06-10T11:46:58.099Z,26.85
2017-06-10T11:47:54.352Z,26.89
2017-06-10T11:48:50.590Z,26.94
2017-06-10T11:49:46.831Z,26.98
2017-06-10T11:50:43.103Z,27.02
2017-06-10T11:51:39.347Z,27.04
2017-06-10T11:52:35.594Z,27.08
2017-06-10T11:53:31.847Z,27.09
2017-06-10T11:54:28.098Z,27.09
2017-06-10T11:55:24.364Z,27.08
2017-06-10T11:56:20.639Z,27.03
2017-06-10T11:57:16.907Z,26.99
2017-06-10T11:58:13.179Z,26.95
2017-06-10T11:59:09.427Z,26.92
2017-06-10T12:00:05.667Z,26.88
2017-06-10T12:01:01.919Z,26.85
2017-06-10T12:01:58.182Z,26.81
2017-06-10T12:02:54.435Z,26.79
2017-06-10T12:03:50.670Z,26.77
2017-06-10T12:04:46.914Z,26.76
2017-06-10T12:05:43.188Z,26.73
2017-06-10T12:06:39.551Z,26.72
2017-06-10T12:07:35.828Z,26.69
2017-06-10T12:08:32.087Z,26.67
2017-06-10T12:09:28.335Z,26.66
2017-06-10T12:10:24.571Z,26.68
2017-06-10T12:11:20.819Z,26.71
2017-06-10T12:12:17.067Z,26.75
2017-06-10T12:13:13.355Z,26.79
2017-06-10T12:14:09.613Z,26.84
2017-06-10T12:15:05.863Z,26.90
2017-06-10T12:16:02.110Z,26.95
2017-06-10T12:16:58.369Z,27.02
2017-06-10T12:17:54.651Z,27.09
2017-06-10T12:18:50.907Z,27.17
2017-06-10T12:19:47.159Z,27.22
2017-06-10T12:20:43.403Z,27.29
2017-06-10T12:21:39.651Z,27.33
2017-06-10T12:22:35.902Z,27.41
2017-06-10T12:23:35.071Z,27.47
2017-06-10T12:24:31.330Z,27.49
2017-06-10T12:25:27.573Z,27.51
2017-06-10T12:26:23.823Z,27.53
2017-06-10T12:27:20.063Z,27.54
2017-06-10T12:28:16.323Z,27.52
2017-06-10T12:29:12.591Z,27.49
2017-06-10T12:30:08.843Z,27.48
2017-06-10T12:31:05.091Z,27.47
2017-06-10T12:32:01.336Z,27.46
2017-06-10T12:32:57.583Z,27.46
2017-06-10T12:33:53.835Z,27.47
2017-06-10T12:34:50.075Z,27.49
2017-06-10T12:35:46.315Z,27.52
2017-06-10T12:36:42.575Z,27.54
2017-06-10T12:37:38.811Z,27.56
2017-06-10T12:38:35.070Z,27.58
2017-06-10T12:39:31.316Z,27.60
2017-06-10T12:40:27.587Z,27.63
2017-06-10T12:41:23.846Z,27.66
2017-06-10T12:42:20.094Z,27.68
2017-06-10T12:43:16.342Z,27.69
2017-06-10T12:44:12.589Z,27.69
2017-06-10T12:45:08.915Z,27.71
2017-06-10T12:46:05.159Z,27.73
2017-06-10T12:47:01.394Z,27.76
2017-06-10T12:47:57.635Z,27.78
2017-06-10T12:48:53.875Z,27.81
2017-06-10T12:49:50.118Z,27.82
2017-06-10T12:50:46.396Z,27.83
2017-06-10T12:51:42.684Z,27.82
2017-06-10T12:52:38.959Z,27.79
2017-06-10T12:53:35.338Z,27.74
2017-06-10T12:54:31.588Z,27.69
2017-06-10T12:55:27.863Z,27.65
2017-06-10T12:56:24.136Z,27.61
2017-06-10T12:57:20.374Z,27.59
2017-06-10T12:58:16.623Z,27.58
2017-06-10T12:59:12.858Z,27.58
2017-06-10T13:00:09.083Z,27.57
2017-06-10T13:01:05.327Z,27.59
2017-06-10T13:02:01.598Z,27.61
2017-06-10T13:02:57.835Z,27.61
2017-06-10T13:03:54.092Z,27.64
2017-06-10T13:04:50.350Z,27.68
2017-06-10T13:05:46.607Z,27.71
2017-06-10T13:06:42.864Z,27.77
2017-06-10T13:07:39.129Z,27.81
2017-06-10T13:08:35.370Z,27.85
2017-06-10T13:09:31.618Z,27.93
2017-06-10T13:10:27.864Z,27.97
2017-06-10T13:11:24.119Z,28.01
2017-06-10T13:12:20.400Z,28.05
2017-06-10T13:13:16.655Z,28.07
2017-06-10T13:14:12.898Z,28.09
2017-06-10T13:15:09.149Z,28.08
2017-06-10T13:16:05.399Z,28.06
2017-06-10T13:17:01.653Z,28.02
2017-06-10T13:17:57.946Z,27.98
2017-06-10T13:18:54.211Z,27.94
2017-06-10T13:19:50.451Z,27.91
2017-06-10T13:20:46.703Z,27.89
2017-06-10T13:21:42.950Z,27.87
2017-06-10T13:22:39.210Z,27.83
2017-06-10T13:23:35.491Z,27.80
2017-06-10T13:24:31.741Z,27.77
2017-06-10T13:25:28.011Z,27.73
2017-06-10T13:26:24.248Z,27.68
2017-06-10T13:27:20.491Z,27.64
2017-06-10T13:28:16.730Z,27.60
2017-06-10T13:29:12.998Z,27.54
2017-06-10T13:30:09.251Z,27.48
2017-06-10T13:31:05.492Z,27.42
2017-06-10T13:32:01.735Z,27.35
2017-06-10T13:32:58.026Z,27.31
2017-06-10T13:33:54.270Z,27.29
2017-06-10T13:34:50.628Z,27.28
2017-06-10T13:35:46.874Z,27.29
2017-06-10T13:36:43.121Z,27.31
2017-06-10T13:37:39.366Z,27.36
2017-06-10T13:38:35.611Z,27.42
2017-06-10T13:39:31.875Z,27.49
2017-06-10T13:40:28.132Z,27.53
2017-06-10T13:41:24.392Z,27.59
2017-06-10T13:42:20.711Z,27.64
2017-06-10T13:43:16.955Z,27.67
2017-06-10T13:44:13.191Z,27.74
2017-06-10T13:45:09.461Z,27.78
2017-06-10T13:46:05.719Z,27.82
2017-06-10T13:47:01.967Z,27.83
2017-06-10T13:47:58.205Z,27.84
2017-06-10T13:48:54.452Z,27.86
2017-06-10T13:49:50.695Z,27.86
2017-06-10T13:50:46.977Z,27.85
2017-06-10T13:51:43.219Z,27.85
2017-06-10T13:52:39.474Z,27.86
2017-06-10T13:53:35.711Z,27.87
2017-06-10T13:54:31.959Z,27.88
2017-06-10T13:55:30.050Z,27.89
2017-06-10T13:56:26.310Z,27.92
2017-06-10T13:57:22.576Z,27.94
2017-06-10T13:58:18.811Z,27.95
2017-06-10T13:59:15.054Z,27.96
2017-06-10T14:00:11.327Z,27.99
2017-06-10T14:01:07.647Z,28.00
2017-06-10T14:02:03.920Z,27.99
2017-06-10T14:03:00.163Z,27.97
2017-06-10T14:03:56.407Z,27.94
2017-06-10T14:04:52.650Z,27.90
2017-06-10T14:05:48.900Z,27.86
2017-06-10T14:06:45.169Z,27.83
2017-06-10T14:07:41.415Z,27.81
2017-06-10T14:08:37.671Z,27.80
2017-06-10T14:09:33.922Z,27.80
2017-06-10T14:10:30.187Z,27.81
2017-06-10T14:11:26.430Z,27.80
2017-06-10T14:12:22.695Z,27.82
2017-06-10T14:13:18.934Z,27.84
2017-06-10T14:14:15.235Z,27.83
2017-06-10T14:15:11.494Z,27.85
2017-06-10T14:16:07.750Z,27.85
2017-06-10T14:17:04.000Z,27.87
2017-06-10T14:18:00.268Z,27.88
2017-06-10T14:18:56.504Z,27.89
2017-06-10T14:19:52.759Z,27.90
2017-06-10T14:20:49.061Z,27.88
2017-06-10T14:21:45.299Z,27.89
2017-06-10T14:22:41.544Z,27.88
2017-06-10T14:23:37.819Z,27.90
2017-06-10T14:24:34.080Z,27.89
2017-06-10T14:25:30.346Z,27.88
2017-06-10T14:26:26.591Z,27.88
2017-06-10T14:27:22.831Z,27.87
2017-06-10T14:28:19.123Z,27.86
2017-06-10T14:29:15.395Z,27.86
2017-06-10T14:30:11.634Z,27.86
2017-06-10T14:31:07.881Z,27.84
2017-06-10T14:32:04.132Z,27.85
2017-06-10T14:33:00.396Z,27.85
2017-06-10T14:33:56.678Z,27.86
2017-06-10T14:34:52.955Z,27.88
2017-06-10T14:35:49.208Z,27.90
2017-06-10T14:36:45.474Z,27.92
2017-06-10T14:37:41.738Z,27.94
2017-06-10T14:38:37.998Z,27.95
2017-06-10T14:39:34.287Z,27.94
2017-06-10T14:40:30.551Z,27.95
2017-06-10T14:41:26.828Z,27.98
2017-06-10T14:42:23.108Z,28.00
2017-06-10T14:43:19.353Z,28.02
2017-06-10T14:44:15.607Z,28.02
2017-06-10T14:45:11.895Z,28.02
2017-06-10T14:46:08.147Z,28.01
2017-06-10T14:47:04.395Z,28.00
2017-06-10T14:48:00.647Z,27.99
2017-06-10T14:48:56.898Z,27.96
2017-06-10T14:49:53.152Z,27.94
2017-06-10T14:50:49.458Z,27.92
2017-06-10T14:51:45.720Z,27.91
2017-06-10T14:52:41.954Z,27.90
2017-06-10T14:53:38.206Z,27.89
2017-06-10T14:54:34.450Z,27.88
2017-06-10T14:55:30.720Z,27.87
2017-06-10T14:56:26.995Z,27.86
2017-06-10T14:57:23.243Z,27.86
2017-06-10T14:58:19.495Z,27.86
2017-06-10T14:59:15.752Z,27.88
2017-06-10T15:00:11.988Z,27.87
2017-06-10T15:01:08.260Z,27.88
2017-06-10T15:02:04.503Z,27.89
2017-06-10T15:03:00.743Z,27.89
2017-06-10T15:03:57.023Z,27.91
2017-06-10T15:04:53.259Z,27.92
2017-06-10T15:05:49.518Z,27.92
2017-06-10T15:06:45.806Z,27.94
2017-06-10T15:07:42.099Z,27.91
2017-06-10T15:08:38.351Z,27.89
2017-06-10T15:09:34.613Z,27.88
2017-06-10T15:10:30.877Z,27.85
2017-06-10T15:11:27.112Z,27.83
2017-06-10T15:12:23.403Z,27.83
2017-06-10T15:13:19.657Z,27.82
2017-06-10T15:14:15.907Z,27.82
2017-06-10T15:15:12.259Z,27.83
2017-06-10T15:16:08.416Z,27.83
2017-06-10T15:17:04.674Z,27.83
2017-06-10T15:18:00.955Z,27.85
2017-06-10T15:18:57.198Z,27.85
2017-06-10T15:19:53.455Z,27.85
2017-06-10T15:20:49.708Z,27.83
2017-06-10T15:21:45.961Z,27.83
2017-06-10T15:22:42.216Z,27.82
2017-06-10T15:23:38.491Z,27.83
2017-06-10T15:24:34.770Z,27.83
2017-06-10T15:25:31.028Z,27.84
2017-06-10T15:26:27.287Z,27.84
2017-06-10T15:27:23.543Z,27.85
2017-06-10T15:28:19.835Z,27.85
2017-06-10T15:29:16.083Z,27.85
2017-06-10T15:30:12.327Z,27.85
2017-06-10T15:31:08.578Z,27.84
2017-06-10T15:32:04.868Z,27.82
2017-06-10T15:33:01.119Z,27.81
2017-06-10T15:33:57.396Z,27.79
2017-06-10T15:34:53.631Z,27.78
2017-06-10T15:35:49.871Z,27.77
2017-06-10T15:36:46.119Z,27.74
2017-06-10T15:37:42.375Z,27.73
2017-06-10T15:38:38.626Z,27.72
2017-06-10T15:39:34.894Z,27.71
2017-06-10T15:40:31.139Z,27.69
2017-06-10T15:41:27.403Z,27.68
2017-06-10T15:42:23.683Z,27.68
2017-06-10T15:43:20.355Z,27.67
2017-06-10T15:44:16.611Z,27.67
2017-06-10T15:45:12.913Z,27.67
2017-06-10T15:46:09.295Z,27.67
2017-06-10T15:47:05.750Z,27.67
2017-06-10T15:48:02.035Z,27.66
2017-06-10T15:48:58.295Z,27.67
2017-06-10T15:49:54.551Z,27.66
2017-06-10T15:50:50.814Z,27.65
2017-06-10T15:51:47.071Z,27.64
2017-06-10T15:52:43.333Z,27.63
2017-06-10T15:53:39.587Z,27.63
2017-06-10T15:54:35.834Z,27.63
2017-06-10T15:55:32.178Z,27.62
2017-06-10T15:56:28.422Z,27.62
2017-06-10T15:57:24.672Z,27.62
2017-06-10T15:58:20.931Z,27.61
2017-06-10T15:59:17.179Z,27.60
2017-06-10T16:00:13.426Z,27.61
2017-06-10T16:01:09.706Z,27.61
2017-06-10T16:02:05.943Z,27.59
2017-06-10T16:03:02.185Z,27.58
2017-06-10T16:03:58.427Z,27.59
2017-06-10T16:04:54.684Z,27.56
2017-06-10T16:05:50.948Z,27.54
2017-06-10T16:06:47.227Z,27.53
2017-06-10T16:07:43.475Z,27.51
2017-06-10T16:08:39.719Z,27.51
2017-06-10T16:09:35.982Z,27.49
2017-06-10T16:10:32.240Z,27.49
2017-06-10T16:11:28.543Z,27.49
2017-06-10T16:12:24.822Z,27.47
2017-06-10T16:13:21.063Z,27.47
2017-06-10T16:14:17.319Z,27.46
2017-06-10T16:15:13.593Z,27.44
2017-06-10T16:16:09.843Z,27.43
2017-06-10T16:17:06.100Z,27.43
2017-06-10T16:18:02.367Z,27.42
2017-06-10T16:18:58.626Z,27.42
2017-06-10T16:19:54.889Z,27.42
2017-06-10T16:20:51.131Z,27.43
2017-06-10T16:21:47.472Z,27.43
2017-06-10T16:22:43.751Z,27.42
2017-06-10T16:23:40.011Z,27.42
2017-06-10T16:24:36.262Z,27.38
2017-06-10T16:25:32.505Z,27.36
2017-06-10T16:26:28.764Z,27.34
2017-06-10T16:27:25.023Z,27.32
2017-06-10T16:28:21.298Z,27.31
2017-06-10T16:29:17.581Z,27.29
2017-06-10T16:30:13.846Z,27.29
2017-06-10T16:31:10.096Z,27.27
2017-06-10T16:32:06.347Z,27.24
2017-06-10T16:33:02.622Z,27.24
2017-06-10T16:33:58.921Z,27.22
2017-06-10T16:34:55.188Z,27.21
2017-06-10T16:35:51.435Z,27.19
2017-06-10T16:36:47.694Z,27.19
2017-06-10T16:37:43.944Z,27.18
2017-06-10T16:38:40.219Z,27.17
2017-06-10T16:39:36.478Z,27.17
2017-06-10T16:40:32.723Z,27.16
2017-06-10T16:41:28.970Z,27.15